createdAt,value
2019-05-07T00:00:53.697Z,5.37
2019-05-07T00:03:23.171Z,4.83
2019-05-07T00:05:53.960Z,5.33
2019-05-07T00:08:23.686Z,4.50
2019-05-07T00:10:53.137Z,5.67
2019-05-07T00:13:22.847Z,5.23
2019-05-07T00:15:52.861Z,6.57
2019-05-07T00:18:23.095Z,6.47
2019-05-07T00:20:53.020Z,6.63
2019-05-07T00:23:23.149Z,6.43
2019-05-07T00:25:53.280Z,6.00
2019-05-07T00:28:23.126Z,6.33
2019-05-07T00:30:53.358Z,5.37
2019-05-07T00:33:23.375Z,5.17
2019-05-07T00:35:54.459Z,5.23
2019-05-07T00:38:25.554Z,5.57
2019-05-07T00:40:59.644Z,6.10
2019-05-07T00:43:32.266Z,7.27
2019-05-07T00:46:03.457Z,5.67
2019-05-07T00:48:33.095Z,5.53
2019-05-07T00:51:22.469Z,5.73
2019-05-07T00:53:52.045Z,5.63
2019-05-07T00:56:22.709Z,5.87
2019-05-07T00:58:52.853Z,5.23
2019-05-07T01:01:23.200Z,5.97
2019-05-07T01:03:53.333Z,5.73
2019-05-07T01:06:26.418Z,5.13
2019-05-07T01:08:54.067Z,5.13
2019-05-07T01:11:23.526Z,5.90
2019-05-07T01:13:52.976Z,6.73
2019-05-07T01:16:22.499Z,6.00
2019-05-07T01:18:53.777Z,6.00
2019-05-07T01:21:23.050Z,6.70
2019-05-07T01:23:52.498Z,6.40
2019-05-07T01:26:22.144Z,6.73
2019-05-07T01:29:02.857Z,6.63
2019-05-07T01:31:38.267Z,6.00
2019-05-07T01:34:27.577Z,6.53
2019-05-07T01:36:57.055Z,5.83
2019-05-07T01:39:26.515Z,7.10
2019-05-07T01:41:55.957Z,6.47
2019-05-07T01:44:25.418Z,5.70
2019-05-07T01:46:54.858Z,6.33
2019-05-07T01:49:24.316Z,7.30
2019-05-07T01:51:54.058Z,7.00
2019-05-07T01:54:23.871Z,6.57
2019-05-07T01:56:53.478Z,6.33
2019-05-07T01:59:22.926Z,7.27
2019-05-07T02:01:54.037Z,6.60
2019-05-07T02:04:28.071Z,6.00
2019-05-07T02:07:15.399Z,6.27
2019-05-07T02:09:58.581Z,6.57
2019-05-07T02:12:32.717Z,6.70
2019-05-07T02:15:02.675Z,5.40
2019-05-07T02:17:32.555Z,6.70
2019-05-07T02:20:02.638Z,6.53
2019-05-07T02:22:32.356Z,6.60
2019-05-07T02:25:03.366Z,6.60
2019-05-07T02:27:34.064Z,6.30
2019-05-07T02:30:04.700Z,6.90
2019-05-07T02:32:34.309Z,6.73
2019-05-07T02:35:04.823Z,6.27
2019-05-07T02:37:48.716Z,7.20
2019-05-07T02:40:14.383Z,6.63
2019-05-07T02:42:44.409Z,6.97
2019-05-07T02:45:33.266Z,6.77
2019-05-07T02:48:03.618Z,6.67
2019-05-07T02:50:37.882Z,7.50
2019-05-07T02:53:13.765Z,6.87
2019-05-07T02:55:47.065Z,6.07
2019-05-07T02:58:16.519Z,6.13
2019-05-07T03:00:45.973Z,7.07
2019-05-07T03:03:15.507Z,7.27
2019-05-07T03:05:45.025Z,7.23
2019-05-07T03:08:14.513Z,6.80
2019-05-07T03:10:44.030Z,7.10
2019-05-07T03:13:14.079Z,7.70
2019-05-07T03:15:43.932Z,7.73
2019-05-07T03:18:14.451Z,6.73
2019-05-07T03:20:46.410Z,7.30
2019-05-07T03:23:17.521Z,7.33
2019-05-07T03:25:54.199Z,7.80
2019-05-07T03:28:24.251Z,7.33
2019-05-07T03:31:05.729Z,7.97
2019-05-07T03:33:46.545Z,7.67
2019-05-07T03:36:16.479Z,8.13
2019-05-07T03:38:43.965Z,7.73
2019-05-07T03:41:13.660Z,8.17
2019-05-07T03:43:43.667Z,7.83
2019-05-07T03:46:14.785Z,7.10
2019-05-07T03:48:46.477Z,7.87
2019-05-07T03:51:15.939Z,8.37
2019-05-07T03:53:45.408Z,8.13
2019-05-07T03:56:14.860Z,8.47
2019-05-07T03:58:44.313Z,8.13
2019-05-07T04:01:13.866Z,7.77
2019-05-07T04:03:44.565Z,8.83
2019-05-07T04:06:14.471Z,7.80
2019-05-07T04:08:43.929Z,7.93
2019-05-07T04:11:14.051Z,7.83
2019-05-07T04:13:44.300Z,8.43
2019-05-07T04:16:14.076Z,8.37
2019-05-07T04:18:44.091Z,9.20
2019-05-07T04:21:14.228Z,13.73
2019-05-07T04:23:44.222Z,15.53
2019-05-07T04:26:27.697Z,14.67
2019-05-07T04:29:06.178Z,14.97
2019-05-07T04:31:36.970Z,12.43
2019-05-07T04:34:08.073Z,12.93
2019-05-07T04:36:39.158Z,12.73
2019-05-07T04:39:09.082Z,13.37
2019-05-07T04:41:38.537Z,14.27
2019-05-07T04:44:08.027Z,11.23
2019-05-07T04:46:37.485Z,10.33
2019-05-07T04:49:06.953Z,10.33
2019-05-07T04:51:38.056Z,9.47
2019-05-07T04:54:07.526Z,8.70
2019-05-07T04:56:36.988Z,9.20
2019-05-07T04:59:06.464Z,9.37
2019-05-07T05:01:37.545Z,9.10
2019-05-07T05:04:24.270Z,9.07
2019-05-07T05:06:38.098Z,9.37
2019-05-07T05:09:07.591Z,9.47
2019-05-07T05:11:37.014Z,9.97
2019-05-07T05:14:07.843Z,9.03
2019-05-07T05:16:37.816Z,9.37
2019-05-07T05:19:07.300Z,8.97
2019-05-07T05:21:38.385Z,10.27
2019-05-07T05:24:09.497Z,9.57
2019-05-07T05:26:38.945Z,10.47
2019-05-07T05:29:08.439Z,10.73
2019-05-07T05:31:38.971Z,10.07
2019-05-07T05:34:08.457Z,10.97
2019-05-07T05:36:37.931Z,9.93
2019-05-07T05:39:08.547Z,10.70
2019-05-07T05:41:39.758Z,10.70
2019-05-07T05:44:11.953Z,10.43
2019-05-07T05:46:42.858Z,10.17
2019-05-07T05:49:12.363Z,10.60
2019-05-07T05:51:45.905Z,10.47
2019-05-07T05:54:25.897Z,10.73
2019-05-07T05:56:57.004Z,11.13
2019-05-07T05:59:46.582Z,10.83
2019-05-07T06:02:06.348Z,11.00
2019-05-07T06:04:36.001Z,11.73
2019-05-07T06:07:13.936Z,12.53
2019-05-07T06:09:42.419Z,11.87
2019-05-07T06:12:13.512Z,12.53
2019-05-07T06:14:48.612Z,12.00
2019-05-07T06:17:28.536Z,13.07
2019-05-07T06:19:59.634Z,12.67
2019-05-07T06:22:32.909Z,13.03
2019-05-07T06:25:15.567Z,12.47
2019-05-07T06:27:44.996Z,12.67
2019-05-07T06:30:14.886Z,13.80
2019-05-07T06:32:44.352Z,14.00
2019-05-07T06:35:13.865Z,13.43
2019-05-07T06:37:44.201Z,13.00
2019-05-07T06:40:19.085Z,14.17
2019-05-07T06:42:52.377Z,13.50
2019-05-07T06:45:31.155Z,15.77
2019-05-07T06:48:02.831Z,13.43
2019-05-07T06:50:32.708Z,14.30
2019-05-07T06:53:02.816Z,14.90
2019-05-07T06:55:33.021Z,14.27
2019-05-07T06:58:03.349Z,15.57
2019-05-07T07:00:42.247Z,14.03
2019-05-07T07:03:14.547Z,14.90
2019-05-07T07:05:45.671Z,16.67
2019-05-07T07:08:23.046Z,15.27
2019-05-07T07:11:02.646Z,15.40
2019-05-07T07:13:32.519Z,14.60
2019-05-07T07:16:02.134Z,16.83
2019-05-07T07:18:32.466Z,15.07
2019-05-07T07:21:03.595Z,16.63
2019-05-07T07:23:33.060Z,16.10
2019-05-07T07:26:03.198Z,17.40
2019-05-07T07:28:32.996Z,18.27
2019-05-07T07:31:10.005Z,16.57
2019-05-07T07:33:46.999Z,16.60
2019-05-07T07:36:16.758Z,17.83
2019-05-07T07:38:46.285Z,17.17
2019-05-07T07:41:32.771Z,18.20
2019-05-07T07:44:02.412Z,16.90
2019-05-07T07:46:33.157Z,18.03
2019-05-07T07:49:10.148Z,16.40
2019-05-07T07:51:41.592Z,18.23
2019-05-07T07:54:06.095Z,18.63
2019-05-07T07:56:49.112Z,19.53
2019-05-07T07:59:15.703Z,17.97
2019-05-07T08:01:52.595Z,18.10
2019-05-07T08:04:22.817Z,18.60
2019-05-07T08:06:59.952Z,18.63
2019-05-07T08:09:29.524Z,17.50
2019-05-07T08:11:59.824Z,17.93
2019-05-07T08:14:32.444Z,19.30
2019-05-07T08:17:03.931Z,20.37
2019-05-07T08:19:33.387Z,19.40
2019-05-07T08:22:03.171Z,18.97
2019-05-07T08:24:33.276Z,19.27
2019-05-07T08:27:02.735Z,21.80
2019-05-07T08:29:32.683Z,20.10
2019-05-07T08:32:13.559Z,18.97
2019-05-07T08:34:52.150Z,18.73
2019-05-07T08:37:24.283Z,19.63
2019-05-07T08:39:52.775Z,20.83
2019-05-07T08:42:22.817Z,19.10
2019-05-07T08:44:56.535Z,21.07
2019-05-07T08:47:42.660Z,20.33
2019-05-07T08:50:12.157Z,19.97
2019-05-07T08:52:42.018Z,19.77
2019-05-07T08:55:12.666Z,20.10
2019-05-07T08:57:42.183Z,19.33
2019-05-07T09:00:13.513Z,20.97
2019-05-07T09:02:43.039Z,19.37
2019-05-07T09:05:12.756Z,20.93
2019-05-07T09:07:42.603Z,21.67
2019-05-07T09:10:12.758Z,21.40
2019-05-07T09:12:42.883Z,20.93
2019-05-07T09:15:12.683Z,22.00
2019-05-07T09:17:43.132Z,21.37
2019-05-07T09:20:12.932Z,22.20
2019-05-07T09:22:42.950Z,23.03
2019-05-07T09:25:13.088Z,24.03
2019-05-07T09:27:46.162Z,22.67
2019-05-07T09:30:21.986Z,22.27
2019-05-07T09:32:52.935Z,24.07
2019-05-07T09:35:35.936Z,24.13
2019-05-07T09:38:05.388Z,22.90
2019-05-07T09:40:34.847Z,24.53
2019-05-07T09:43:04.435Z,22.57
2019-05-07T09:45:33.890Z,23.93
2019-05-07T09:48:03.528Z,23.47
2019-05-07T09:50:32.987Z,23.40
2019-05-07T09:53:02.545Z,20.87
2019-05-07T09:55:32.513Z,23.27
2019-05-07T09:58:02.266Z,22.77
2019-05-07T10:00:32.194Z,22.47
2019-05-07T10:03:02.492Z,22.83
2019-05-07T10:05:32.241Z,20.00
2019-05-07T10:08:02.005Z,14.33
2019-05-07T10:10:32.945Z,16.67
2019-05-07T10:13:06.865Z,14.40
2019-05-07T10:15:36.561Z,10.93
2019-05-07T10:18:13.670Z,12.40
2019-05-07T10:20:43.361Z,12.10
2019-05-07T10:23:23.119Z,12.93
2019-05-07T10:25:53.597Z,13.67
2019-05-07T10:28:23.600Z,12.53
2019-05-07T10:30:53.567Z,13.80
2019-05-07T10:33:23.154Z,14.30
2019-05-07T10:35:52.998Z,15.33
2019-05-07T10:38:23.701Z,14.73
2019-05-07T10:40:53.263Z,14.27
2019-05-07T10:43:22.849Z,13.47
2019-05-07T10:46:12.625Z,14.17
2019-05-07T10:48:48.896Z,13.40
2019-05-07T10:51:18.363Z,15.03
2019-05-07T10:53:47.825Z,14.57
2019-05-07T10:56:18.361Z,14.53
2019-05-07T10:58:47.888Z,14.40
2019-05-07T11:01:18.979Z,16.83
2019-05-07T11:03:48.439Z,16.43
2019-05-07T11:06:17.890Z,16.63
2019-05-07T11:08:47.342Z,17.13
2019-05-07T11:11:16.865Z,18.77
2019-05-07T11:13:46.335Z,17.10
2019-05-07T11:16:17.444Z,18.50
2019-05-07T11:18:48.780Z,16.87
2019-05-07T11:21:19.871Z,17.37
2019-05-07T11:23:52.097Z,16.63
2019-05-07T11:26:22.212Z,17.30
2019-05-07T11:28:51.705Z,17.17
2019-05-07T11:31:22.368Z,18.70
2019-05-07T11:33:52.134Z,18.93
2019-05-07T11:36:21.733Z,18.43
2019-05-07T11:38:52.660Z,19.07
2019-05-07T11:41:23.893Z,17.23
2019-05-07T11:43:54.995Z,16.80
2019-05-07T11:46:28.859Z,13.90
2019-05-07T11:49:02.687Z,22.70
2019-05-07T11:51:33.774Z,15.30
2019-05-07T11:54:12.341Z,16.07
2019-05-07T11:56:42.463Z,16.03
2019-05-07T11:59:13.316Z,10.83
2019-05-07T12:01:48.665Z,9.17
2019-05-07T12:04:18.121Z,8.67
2019-05-07T12:06:47.588Z,7.40
2019-05-07T12:09:17.037Z,9.60
2019-05-07T12:11:46.494Z,8.93
2019-05-07T12:14:27.972Z,7.27
2019-05-07T12:16:48.116Z,7.03
2019-05-07T12:19:17.638Z,6.60
2019-05-07T12:21:47.240Z,6.70
2019-05-07T12:24:16.716Z,9.93
2019-05-07T12:26:46.159Z,8.80
2019-05-07T12:29:16.597Z,9.37
2019-05-07T12:31:47.708Z,8.60
2019-05-07T12:34:22.890Z,8.40
2019-05-07T12:36:52.538Z,5.30
2019-05-07T12:39:22.044Z,5.27
2019-05-07T12:41:52.483Z,6.13
2019-05-07T12:44:22.286Z,3.23
2019-05-07T12:46:52.509Z,3.20
2019-05-07T12:49:22.246Z,4.70
2019-05-07T12:51:56.091Z,3.97
2019-05-07T12:54:27.191Z,3.30
2019-05-07T12:56:56.659Z,3.30
2019-05-07T12:59:26.122Z,2.93
2019-05-07T13:02:16.707Z,3.07
2019-05-07T13:04:37.368Z,3.23
2019-05-07T13:07:08.525Z,3.20
2019-05-07T13:09:37.987Z,3.57
2019-05-07T13:12:07.441Z,3.03
2019-05-07T13:14:36.907Z,3.57
2019-05-07T13:17:06.428Z,3.77
2019-05-07T13:19:39.031Z,3.73
2019-05-07T13:22:08.023Z,4.47
2019-05-07T13:24:37.469Z,3.57
2019-05-07T13:27:06.982Z,4.80
2019-05-07T13:29:36.447Z,5.83
2019-05-07T13:32:06.393Z,3.93
2019-05-07T13:34:35.910Z,3.50
2019-05-07T13:37:12.851Z,3.77
2019-05-07T13:39:46.602Z,3.60
2019-05-07T13:42:34.590Z,3.00
2019-05-07T13:45:09.085Z,3.00
2019-05-07T13:47:40.661Z,2.93
2019-05-07T13:50:11.910Z,2.93
2019-05-07T13:52:43.497Z,3.30
2019-05-07T13:55:13.338Z,3.57
2019-05-07T13:57:43.264Z,3.07
2019-05-07T14:00:15.790Z,2.90
2019-05-07T14:02:45.376Z,3.50
2019-05-07T14:05:15.171Z,3.60
2019-05-07T14:07:44.656Z,3.80
2019-05-07T14:10:14.783Z,3.70
2019-05-07T14:12:44.410Z,3.27
2019-05-07T14:15:14.727Z,3.33
2019-05-07T14:17:44.395Z,3.50
2019-05-07T14:20:15.546Z,3.40
2019-05-07T14:22:45.008Z,3.47
2019-05-07T14:25:14.803Z,3.40
2019-05-07T14:27:44.249Z,3.43
2019-05-07T14:30:14.337Z,2.60
2019-05-07T14:32:48.303Z,3.47
2019-05-07T14:35:23.715Z,3.90
2019-05-07T14:38:00.783Z,3.40
2019-05-07T14:40:32.216Z,3.40
2019-05-07T14:43:03.618Z,3.43
2019-05-07T14:45:33.323Z,3.37
2019-05-07T14:48:03.015Z,3.50
2019-05-07T14:50:33.154Z,4.23
2019-05-07T14:53:02.883Z,3.77
2019-05-07T14:55:33.357Z,3.67
2019-05-07T14:58:02.956Z,3.50
2019-05-07T15:00:35.105Z,3.43
2019-05-07T15:03:03.846Z,3.47
2019-05-07T15:05:33.331Z,4.00
2019-05-07T15:08:10.512Z,3.37
2019-05-07T15:10:34.139Z,4.93
2019-05-07T15:13:03.627Z,3.90
2019-05-07T15:15:33.207Z,3.37
2019-05-07T15:18:04.357Z,3.73
2019-05-07T15:20:33.903Z,4.20
2019-05-07T15:23:05.000Z,3.30
2019-05-07T15:25:34.651Z,3.67
2019-05-07T15:28:04.089Z,3.57
2019-05-07T15:30:41.803Z,3.63
2019-05-07T15:33:12.764Z,3.90
2019-05-07T15:35:42.828Z,3.77
2019-05-07T15:38:12.786Z,3.57
2019-05-07T15:40:42.486Z,3.53
2019-05-07T15:43:12.879Z,4.07
2019-05-07T15:45:43.442Z,5.60
2019-05-07T15:48:12.899Z,5.10
2019-05-07T15:50:42.895Z,3.60
2019-05-07T15:53:23.031Z,3.60
2019-05-07T15:55:52.550Z,3.77
2019-05-07T15:58:22.818Z,3.73
2019-05-07T16:00:52.294Z,3.20
2019-05-07T16:03:25.257Z,2.70
2019-05-07T16:05:54.994Z,3.60
2019-05-07T16:08:26.219Z,3.77
2019-05-07T16:10:55.770Z,3.77
2019-05-07T16:13:42.123Z,4.03
2019-05-07T16:16:11.756Z,4.17
2019-05-07T16:18:59.285Z,3.67
2019-05-07T16:21:28.750Z,3.50
2019-05-07T16:23:58.207Z,3.70
2019-05-07T16:26:27.657Z,4.00
2019-05-07T16:28:57.119Z,3.63
2019-05-07T16:31:26.580Z,3.83
2019-05-07T16:33:56.022Z,3.63
2019-05-07T16:36:25.489Z,4.70
2019-05-07T16:38:54.933Z,4.20
2019-05-07T16:41:24.467Z,3.87
2019-05-07T16:43:53.914Z,3.80
2019-05-07T16:46:23.378Z,3.87
2019-05-07T16:48:52.840Z,3.13
2019-05-07T16:51:22.444Z,3.50
2019-05-07T16:53:53.425Z,3.57
2019-05-07T16:56:22.867Z,3.63
2019-05-07T16:58:54.128Z,3.73
2019-05-07T17:01:24.707Z,3.53
2019-05-07T17:03:56.475Z,3.77
2019-05-07T17:06:25.935Z,3.50
2019-05-07T17:09:03.368Z,4.03
2019-05-07T17:11:34.439Z,3.73
2019-05-07T17:14:04.021Z,4.07
2019-05-07T17:16:33.541Z,3.70
2019-05-07T17:19:03.043Z,3.90
2019-05-07T17:21:32.656Z,4.37
2019-05-07T17:24:02.672Z,4.20
2019-05-07T17:26:33.204Z,15.10
2019-05-07T17:29:02.720Z,6.53
2019-05-07T17:31:33.141Z,5.13
2019-05-07T17:34:02.615Z,5.10
2019-05-07T17:36:33.033Z,4.00
2019-05-07T17:39:02.919Z,4.00
2019-05-07T17:41:34.001Z,4.43
2019-05-07T17:44:03.461Z,4.23
2019-05-07T17:46:33.285Z,3.77
2019-05-07T17:49:02.835Z,4.07
2019-05-07T17:51:45.170Z,3.93
2019-05-07T17:54:15.690Z,4.57
2019-05-07T17:56:45.224Z,4.37
2019-05-07T17:59:14.757Z,4.37
2019-05-07T18:01:52.972Z,5.00
2019-05-07T18:04:22.747Z,4.50
2019-05-07T18:06:53.087Z,4.67
2019-05-07T18:09:22.664Z,4.37
2019-05-07T18:11:52.420Z,5.20
2019-05-07T18:14:24.605Z,4.70
2019-05-07T18:16:56.665Z,4.47
2019-05-07T18:19:27.285Z,4.50
2019-05-07T18:21:56.737Z,4.77
2019-05-07T18:24:26.204Z,4.93
2019-05-07T18:26:55.745Z,4.67
2019-05-07T18:29:25.207Z,5.10
2019-05-07T18:31:58.973Z,4.90
2019-05-07T18:34:28.608Z,5.20
2019-05-07T18:36:58.072Z,5.30
2019-05-07T18:39:27.521Z,5.43
2019-05-07T18:41:56.984Z,5.30
2019-05-07T18:44:26.437Z,5.20
2019-05-07T18:46:55.959Z,5.57
2019-05-07T18:49:25.407Z,5.03
2019-05-07T18:51:54.873Z,5.03
2019-05-07T18:54:30.306Z,5.80
2019-05-07T18:56:55.516Z,5.03
2019-05-07T18:59:26.623Z,5.50
2019-05-07T19:01:56.067Z,5.17
2019-05-07T19:04:26.316Z,5.80
2019-05-07T19:06:55.929Z,5.53
2019-05-07T19:09:25.943Z,6.20
2019-05-07T19:11:55.395Z,5.63
2019-05-07T19:14:24.849Z,6.50
2019-05-07T19:16:54.298Z,6.00
2019-05-07T19:19:23.758Z,6.57
2019-05-07T19:21:53.223Z,6.80
2019-05-07T19:24:26.195Z,7.77
2019-05-07T19:26:54.734Z,7.07
2019-05-07T19:29:24.273Z,8.00
2019-05-07T19:31:53.747Z,7.30
2019-05-07T19:34:23.197Z,8.13
2019-05-07T19:36:52.646Z,6.90
2019-05-07T19:39:23.351Z,8.73
2019-05-07T19:41:53.061Z,7.83
2019-05-07T19:44:22.577Z,9.10
2019-05-07T19:46:52.581Z,7.47
2019-05-07T19:49:23.057Z,8.73
2019-05-07T19:51:52.531Z,8.53
2019-05-07T19:54:22.980Z,8.33
2019-05-07T19:56:52.465Z,8.00
2019-05-07T19:59:22.349Z,8.47
2019-05-07T20:01:56.505Z,9.10
2019-05-07T20:04:25.971Z,8.97
2019-05-07T20:06:55.897Z,9.77
2019-05-07T20:09:27.079Z,8.47
2019-05-07T20:11:56.697Z,9.70
2019-05-07T20:14:26.166Z,9.20
2019-05-07T20:16:55.638Z,9.20
2019-05-07T20:19:25.197Z,10.13
2019-05-07T20:21:54.650Z,10.50
2019-05-07T20:24:24.145Z,10.97
2019-05-07T20:26:53.679Z,11.87
2019-05-07T20:29:23.238Z,11.60
2019-05-07T20:31:53.210Z,10.80
2019-05-07T20:34:23.864Z,11.97
2019-05-07T20:36:53.311Z,12.13
2019-05-07T20:39:23.387Z,11.63
2019-05-07T20:41:52.966Z,12.23
2019-05-07T20:44:23.515Z,11.40
2019-05-07T20:46:53.562Z,11.53
2019-05-07T20:49:23.289Z,12.17
2019-05-07T20:51:52.887Z,12.33
2019-05-07T20:54:35.858Z,12.03
2019-05-07T20:57:07.017Z,12.03
2019-05-07T20:59:36.482Z,12.20
2019-05-07T21:02:05.937Z,11.27
2019-05-07T21:04:35.398Z,12.30
2019-05-07T21:07:05.827Z,12.60
2019-05-07T21:09:35.301Z,13.10
2019-05-07T21:12:04.745Z,11.67
2019-05-07T21:14:34.214Z,12.37
2019-05-07T21:17:03.720Z,12.07
2019-05-07T21:19:33.352Z,12.13
2019-05-07T21:22:02.843Z,13.00
2019-05-07T21:24:33.039Z,13.13
2019-05-07T21:27:02.862Z,13.53
2019-05-07T21:29:32.786Z,13.93
2019-05-07T21:32:03.339Z,14.40
2019-05-07T21:34:33.019Z,13.70
2019-05-07T21:37:03.272Z,14.30
2019-05-07T21:39:33.102Z,14.43
2019-05-07T21:42:02.805Z,14.93
2019-05-07T21:44:32.711Z,16.40
2019-05-07T21:47:03.898Z,15.27
2019-05-07T21:49:34.603Z,15.20
2019-05-07T21:52:04.075Z,15.30
2019-05-07T21:54:37.835Z,14.93
2019-05-07T21:57:14.684Z,16.57
2019-05-07T21:59:44.311Z,16.40
2019-05-07T22:02:22.122Z,16.37
2019-05-07T22:04:52.936Z,16.60
2019-05-07T22:07:22.819Z,16.00
2019-05-07T22:09:54.330Z,16.67
2019-05-07T22:12:23.957Z,16.00
2019-05-07T22:14:53.402Z,16.40
2019-05-07T22:17:22.867Z,16.23
2019-05-07T22:19:52.581Z,17.07
2019-05-07T22:22:24.241Z,16.67
2019-05-07T22:24:53.339Z,17.53
2019-05-07T22:27:24.407Z,16.77
2019-05-07T22:29:53.871Z,16.23
2019-05-07T22:32:30.869Z,17.10
2019-05-07T22:35:02.780Z,17.77
2019-05-07T22:37:34.060Z,17.77
2019-05-07T22:40:12.205Z,17.53
2019-05-07T22:42:43.376Z,16.80
2019-05-07T22:45:12.953Z,17.53
2019-05-07T22:47:42.598Z,18.03
2019-05-07T22:50:12.313Z,16.63
2019-05-07T22:52:41.801Z,17.67
2019-05-07T22:55:13.941Z,17.97
2019-05-07T22:57:46.545Z,17.40
2019-05-07T23:00:22.629Z,17.63
2019-05-07T23:02:53.841Z,17.47
2019-05-07T23:05:23.114Z,16.43
2019-05-07T23:07:52.788Z,16.50
2019-05-07T23:10:22.605Z,17.40
2019-05-07T23:12:52.135Z,16.87
2019-05-07T23:15:22.619Z,16.37
2019-05-07T23:17:52.141Z,16.90
2019-05-07T23:20:24.100Z,18.10
2019-05-07T23:22:52.717Z,18.23
2019-05-07T23:25:24.611Z,17.10
2019-05-07T23:27:54.197Z,18.03
2019-05-07T23:30:23.668Z,17.93
2019-05-07T23:32:53.113Z,17.13
2019-05-07T23:35:22.571Z,17.93
2019-05-07T23:37:53.001Z,17.20
2019-05-07T23:40:24.153Z,16.60
2019-05-07T23:42:55.238Z,16.83
2019-05-07T23:45:24.779Z,17.60
2019-05-07T23:47:54.240Z,17.47
2019-05-07T23:50:23.727Z,16.37
2019-05-07T23:52:53.169Z,15.90
2019-05-07T23:55:22.912Z,16.47
2019-05-07T23:57:52.592Z,17.43
